createdAt,value
2023-03-28T00:03:22.492Z,3.20
2023-03-28T00:08:28.468Z,3.30
2023-03-28T00:13:31.176Z,3.30
2023-03-28T00:18:37.606Z,3.40
2023-03-28T00:23:42.731Z,3.40
2023-03-28T00:28:46.040Z,3.40
2023-03-28T00:33:48.770Z,3.40
2023-03-28T00:38:53.728Z,3.40
2023-03-28T00:43:57.054Z,3.40
2023-03-28T00:49:03.657Z,3.50
2023-03-28T00:54:11.984Z,3.50
2023-03-28T00:59:19.114Z,3.50
2023-03-28T01:42:38.706Z,3.20
2023-03-28T01:49:13.972Z,3.40
2023-03-28T03:08:52.910Z,2.90
2023-03-28T03:13:58.562Z,2.60
2023-03-28T03:19:01.496Z,2.60
2023-03-28T03:24:09.896Z,2.60
2023-03-28T03:29:12.673Z,2.60
2023-03-28T03:34:15.500Z,2.80
2023-03-28T03:39:19.826Z,2.80
2023-03-28T03:44:22.477Z,2.60
2023-03-28T03:49:25.236Z,2.20
2023-03-28T03:54:29.265Z,2.00
2023-03-28T03:59:31.925Z,1.90
2023-03-28T04:04:34.604Z,1.90
2023-03-28T04:09:39.177Z,2.00
2023-03-28T04:14:41.825Z,2.00
2023-03-28T04:19:45.854Z,2.10
2023-03-28T04:24:53.383Z,2.10
2023-03-28T04:29:56.151Z,2.00
2023-03-28T04:35:01.092Z,2.10
2023-03-28T04:40:10.360Z,2.30
2023-03-28T04:45:14.581Z,2.30
2023-03-28T04:50:19.471Z,2.40
2023-03-28T04:55:24.109Z,2.50
2023-03-28T05:00:27.545Z,2.50
2023-03-28T05:05:30.168Z,2.50
2023-03-28T05:10:34.170Z,2.40
2023-03-28T05:15:36.940Z,2.50
2023-03-28T05:20:39.637Z,2.40
2023-03-28T05:25:43.759Z,2.50
2023-03-28T05:30:46.805Z,2.60
2023-03-28T05:35:49.493Z,2.50
2023-03-28T05:40:53.700Z,2.50
2023-03-28T05:45:56.429Z,2.50
2023-03-28T05:50:59.359Z,2.50
2023-03-28T05:56:03.498Z,2.70
2023-03-28T06:01:06.964Z,2.80
2023-03-28T06:06:10.132Z,2.70
2023-03-28T06:11:15.054Z,2.80
2023-03-28T06:16:17.788Z,2.80
2023-03-28T06:21:20.553Z,2.60
2023-03-28T06:26:24.538Z,2.70
2023-03-28T06:31:27.223Z,3.00
2023-03-28T06:36:29.962Z,3.10
2023-03-28T06:41:34.035Z,2.80
2023-03-28T06:46:36.761Z,2.60
2023-03-28T06:51:39.444Z,2.90
2023-03-28T06:56:43.499Z,3.10
2023-03-28T07:01:46.239Z,3.40
2023-03-28T07:06:49.355Z,3.70
2023-03-28T07:11:53.448Z,4.00
2023-03-28T07:16:56.414Z,3.80
2023-03-28T07:21:59.211Z,4.40
2023-03-28T07:27:14.858Z,4.20
2023-03-28T07:32:18.612Z,4.30
2023-03-28T07:37:21.282Z,4.40
2023-03-28T07:42:26.933Z,4.50
2023-03-28T07:47:30.540Z,4.50
2023-03-28T07:52:33.512Z,4.10
2023-03-28T07:57:37.504Z,4.50
2023-03-28T08:02:44.034Z,5.20
2023-03-28T08:07:47.787Z,6.20
2023-03-28T08:12:52.423Z,8.90
2023-03-28T08:17:55.156Z,10.60
2023-03-28T08:22:57.929Z,10.20
2023-03-28T08:28:01.894Z,8.20
2023-03-28T08:33:05.059Z,7.10
2023-03-28T08:38:09.791Z,8.30
2023-03-28T08:43:43.109Z,6.70
2023-03-28T08:48:48.115Z,6.80
2023-03-28T08:53:56.526Z,9.20
2023-03-28T08:59:06.781Z,12.10
2023-03-28T09:04:14.915Z,11.40
2023-03-28T09:48:38.011Z,16.10
2023-03-28T10:01:04.367Z,16.90
2023-03-28T10:06:58.144Z,14.70
2023-03-28T10:19:46.592Z,13.40
2023-03-28T11:04:17.813Z,17.60
2023-03-28T11:27:45.334Z,13.30
2023-03-28T11:33:05.706Z,18.00
2023-03-28T11:38:14.952Z,19.30
2023-03-28T11:43:36.165Z,15.70
2023-03-28T11:48:55.383Z,19.20
2023-03-28T11:54:05.093Z,14.80
2023-03-28T11:59:18.911Z,16.00
2023-03-28T12:04:30.639Z,18.90
2023-03-28T12:09:49.489Z,18.50
2023-03-28T12:15:08.569Z,20.10
2023-03-28T12:20:32.636Z,20.20
2023-03-28T12:25:44.437Z,21.40
2023-03-28T12:30:59.509Z,21.90
2023-03-28T12:36:23.693Z,20.40
2023-03-28T12:41:40.235Z,21.70
2023-03-28T12:46:56.352Z,23.60
2023-03-28T12:52:27.240Z,24.90
2023-03-28T12:57:47.511Z,23.60
2023-03-28T13:02:58.021Z,19.10
2023-03-28T13:08:09.163Z,16.00
2023-03-28T13:13:22.771Z,14.90
2023-03-28T13:18:31.481Z,13.80
2023-03-28T13:23:45.694Z,15.70
2023-03-28T13:28:51.556Z,14.20
2023-03-28T13:33:58.556Z,16.80
2023-03-28T13:39:19.518Z,13.60
2023-03-28T13:44:26.146Z,13.10
2023-03-28T13:49:44.562Z,15.20
2023-03-28T13:54:54.013Z,16.00
2023-03-28T13:59:59.542Z,18.40
2023-03-28T14:05:19.378Z,14.50
2023-03-28T14:10:31.674Z,11.90
2023-03-28T14:15:37.024Z,11.60
2023-03-28T14:20:40.549Z,12.20
2023-03-28T14:25:44.660Z,12.80
2023-03-28T14:30:47.311Z,12.90
2023-03-28T14:36:01.656Z,14.10
2023-03-28T14:41:19.236Z,17.60
2023-03-28T14:46:24.278Z,15.20
2023-03-28T14:51:28.085Z,14.30
2023-03-28T14:56:32.569Z,14.80
2023-03-28T15:01:35.553Z,13.30
2023-03-28T15:06:39.270Z,13.90
2023-03-28T15:11:44.501Z,16.50
2023-03-28T15:16:48.196Z,17.80
2023-03-28T15:21:56.132Z,14.50
2023-03-28T15:27:03.778Z,12.10
2023-03-28T15:32:08.874Z,10.40
2023-03-28T15:37:19.468Z,10.20
2023-03-28T15:42:37.121Z,10.90
2023-03-28T15:47:41.225Z,11.30
2023-03-28T15:52:44.702Z,11.20
2023-03-28T15:57:49.195Z,10.80
2023-03-28T16:02:51.970Z,12.30
2023-03-28T16:07:54.664Z,11.40
2023-03-28T16:12:58.680Z,10.00
2023-03-28T16:18:01.864Z,9.10
2023-03-28T16:23:06.578Z,9.00
2023-03-28T16:28:18.097Z,8.90
2023-03-28T16:33:20.840Z,9.30
2023-03-28T16:38:23.861Z,9.30
2023-03-28T16:43:27.827Z,8.80
2023-03-28T16:48:32.314Z,8.50
2023-03-28T16:53:35.767Z,8.20
2023-03-28T16:58:40.150Z,7.80
2023-03-28T17:03:43.250Z,7.60
2023-03-28T17:08:46.353Z,7.30
2023-03-28T17:13:52.573Z,7.20
2023-03-28T17:18:55.442Z,7.00
2023-03-28T20:31:45.016Z,3.50
2023-03-28T20:36:49.612Z,3.50
2023-03-28T20:41:53.904Z,3.50
2023-03-28T20:46:56.902Z,3.50
2023-03-28T20:51:59.654Z,3.60
2023-03-28T20:57:04.184Z,3.60
2023-03-28T21:02:11.093Z,3.40
2023-03-28T21:07:14.783Z,3.40
2023-03-28T21:12:19.825Z,3.30
2023-03-28T21:17:25.721Z,3.20
2023-03-28T21:22:28.416Z,3.30
2023-03-28T21:27:34.273Z,3.20
2023-03-28T21:32:36.966Z,3.10
2023-03-28T21:37:39.819Z,3.10
2023-03-28T21:42:43.922Z,2.90
2023-03-28T21:47:46.840Z,2.80
2023-03-28T21:52:49.652Z,2.80
2023-03-28T21:57:53.634Z,2.70
2023-03-28T22:02:56.465Z,2.60
2023-03-28T22:07:59.757Z,2.40
2023-03-28T22:13:06.622Z,2.40
2023-03-28T22:18:11.325Z,2.20
2023-03-28T22:23:14.013Z,2.30
2023-03-28T22:28:18.840Z,2.40
2023-03-28T22:33:23.160Z,2.40
2023-03-28T22:38:25.926Z,2.50
2023-03-28T22:43:30.055Z,2.40
2023-03-28T22:48:32.793Z,2.40
2023-03-28T22:53:37.123Z,2.50
2023-03-28T22:58:41.102Z,2.50
2023-03-28T23:03:43.869Z,2.50
2023-03-28T23:08:46.984Z,2.40
2023-03-28T23:13:51.656Z,2.50
2023-03-28T23:18:54.467Z,2.50
2023-03-28T23:23:57.228Z,2.40
2023-03-28T23:29:02.048Z,2.30
2023-03-28T23:34:04.687Z,2.50
2023-03-28T23:39:07.372Z,2.60
2023-03-28T23:44:11.561Z,2.60
2023-03-28T23:49:14.218Z,2.60
2023-03-28T23:54:18.581Z,2.60
2023-03-28T23:59:23.384Z,2.60
